createdAt,value
2019-05-20T00:00:48.731Z,93.10
2019-05-20T00:03:18.052Z,93.30
2019-05-20T00:05:47.453Z,93.30
2019-05-20T00:08:16.899Z,93.50
2019-05-20T00:10:46.073Z,93.40
2019-05-20T00:13:15.299Z,93.30
2019-05-20T00:15:44.482Z,93.50
2019-05-20T00:18:13.654Z,93.70
2019-05-20T00:20:42.888Z,93.80
2019-05-20T00:23:12.086Z,93.80
2019-05-20T00:25:41.263Z,93.80
2019-05-20T00:28:10.452Z,93.80
2019-05-20T00:30:39.635Z,93.70
2019-05-20T00:33:08.806Z,93.80
2019-05-20T00:35:37.963Z,93.80
2019-05-20T00:38:07.160Z,94.00
2019-05-20T00:40:36.357Z,94.10
2019-05-20T00:43:05.504Z,94.00
2019-05-20T00:45:34.721Z,94.00
2019-05-20T00:48:03.877Z,94.00
2019-05-20T00:50:33.810Z,94.10
2019-05-20T00:53:02.982Z,94.00
2019-05-20T00:55:32.497Z,94.10
2019-05-20T00:58:01.669Z,94.30
2019-05-20T01:00:30.829Z,94.60
2019-05-20T01:02:59.997Z,94.50
2019-05-20T01:05:29.192Z,94.70
2019-05-20T01:07:58.402Z,94.80
2019-05-20T01:10:27.605Z,95.20
2019-05-20T01:12:56.694Z,95.20
2019-05-20T01:15:25.857Z,95.50
2019-05-20T01:17:55.050Z,95.40
2019-05-20T01:20:24.201Z,95.50
2019-05-20T01:22:53.305Z,95.80
2019-05-20T01:25:22.397Z,96.10
2019-05-20T01:27:51.561Z,96.10
2019-05-20T01:30:20.672Z,96.20
2019-05-20T01:32:49.878Z,96.20
2019-05-20T01:35:19.046Z,96.00
2019-05-20T01:37:48.233Z,96.10
2019-05-20T01:40:17.811Z,96.40
2019-05-20T01:42:46.990Z,96.40
2019-05-20T01:45:16.095Z,96.50
2019-05-20T01:47:45.273Z,96.40
2019-05-20T01:50:14.542Z,96.60
2019-05-20T01:52:43.717Z,96.40
2019-05-20T01:55:12.885Z,96.00
2019-05-20T01:57:41.991Z,96.40
2019-05-20T02:00:11.402Z,96.30
2019-05-20T02:02:40.586Z,96.30
2019-05-20T02:05:09.779Z,96.20
2019-05-20T02:07:38.960Z,96.30
2019-05-20T02:10:08.555Z,96.20
2019-05-20T02:12:37.732Z,96.20
2019-05-20T02:15:12.809Z,96.10
2019-05-20T02:17:41.990Z,96.30
2019-05-20T02:20:11.573Z,96.20
2019-05-20T02:22:40.690Z,96.20
2019-05-20T02:25:09.870Z,96.00
2019-05-20T02:27:39.045Z,96.00
2019-05-20T02:30:08.237Z,95.90
2019-05-20T02:32:37.384Z,96.00
2019-05-20T02:35:07.059Z,95.90
2019-05-20T02:37:36.251Z,96.00
2019-05-20T02:40:05.767Z,95.60
2019-05-20T02:42:34.954Z,95.90
2019-05-20T02:45:04.297Z,95.80
2019-05-20T02:47:33.489Z,95.90
2019-05-20T02:50:02.693Z,95.90
2019-05-20T02:52:31.843Z,96.00
2019-05-20T02:55:01.010Z,96.00
2019-05-20T02:57:30.800Z,95.90
2019-05-20T02:59:59.993Z,95.90
2019-05-20T03:02:29.187Z,96.00
2019-05-20T03:04:58.366Z,96.30
2019-05-20T03:07:27.563Z,96.10
2019-05-20T03:09:56.819Z,96.00
2019-05-20T03:12:25.990Z,95.90
2019-05-20T03:14:55.177Z,95.80
2019-05-20T03:17:24.610Z,95.60
2019-05-20T03:19:53.778Z,96.10
2019-05-20T03:22:22.950Z,95.80
2019-05-20T03:24:52.122Z,95.50
2019-05-20T03:27:21.706Z,95.40
2019-05-20T03:29:50.812Z,95.40
2019-05-20T03:32:20.047Z,95.40
2019-05-20T03:34:58.655Z,95.70
2019-05-20T03:37:20.021Z,95.60
2019-05-20T03:39:49.203Z,95.60
2019-05-20T03:42:18.396Z,95.70
2019-05-20T03:44:47.578Z,95.90
2019-05-20T03:47:16.916Z,96.00
2019-05-20T03:49:46.091Z,96.10
2019-05-20T03:52:15.320Z,96.10
2019-05-20T03:54:44.485Z,96.10
2019-05-20T03:57:13.651Z,96.20
2019-05-20T03:59:42.923Z,96.10
2019-05-20T04:02:12.122Z,96.30
2019-05-20T04:04:41.284Z,96.30
2019-05-20T04:07:10.470Z,96.20
2019-05-20T04:09:39.711Z,96.10
2019-05-20T04:12:09.010Z,96.10
2019-05-20T04:14:38.277Z,96.20
2019-05-20T04:17:07.434Z,96.30
2019-05-20T04:19:36.663Z,96.50
2019-05-20T04:22:05.804Z,96.30
2019-05-20T04:24:35.078Z,96.10
2019-05-20T04:27:04.221Z,96.10
2019-05-20T04:29:33.310Z,96.30
2019-05-20T04:32:02.503Z,96.00
2019-05-20T04:34:31.674Z,96.30
2019-05-20T04:37:00.850Z,96.40
2019-05-20T04:39:30.068Z,96.30
2019-05-20T04:41:59.227Z,96.30
2019-05-20T04:44:28.338Z,96.30
2019-05-20T04:46:58.117Z,96.30
2019-05-20T04:49:27.309Z,96.20
2019-05-20T04:51:56.512Z,96.30
2019-05-20T04:54:25.654Z,96.30
2019-05-20T04:56:54.830Z,96.40
2019-05-20T04:59:24.007Z,96.70
2019-05-20T05:01:53.240Z,96.20
2019-05-20T05:04:22.415Z,95.90
2019-05-20T05:06:51.594Z,96.00
2019-05-20T05:09:20.770Z,95.80
2019-05-20T05:11:49.951Z,95.70
2019-05-20T05:14:19.136Z,95.70
2019-05-20T05:16:48.338Z,95.40
2019-05-20T05:19:17.635Z,95.60
2019-05-20T05:21:46.811Z,95.10
2019-05-20T05:24:15.971Z,95.00
2019-05-20T05:26:47.861Z,94.80
2019-05-20T05:29:15.974Z,94.80
2019-05-20T05:31:45.153Z,94.50
2019-05-20T05:34:14.334Z,94.60
2019-05-20T05:36:43.443Z,94.60
2019-05-20T05:39:12.622Z,94.90
2019-05-20T05:41:41.802Z,94.90
2019-05-20T05:44:10.974Z,95.30
2019-05-20T05:46:40.173Z,95.30
2019-05-20T05:49:09.366Z,94.90
2019-05-20T05:51:38.750Z,94.70
2019-05-20T05:54:15.581Z,94.60
2019-05-20T05:56:40.553Z,94.60
2019-05-20T05:59:09.719Z,95.00
2019-05-20T06:01:38.892Z,94.30
2019-05-20T06:04:08.071Z,94.90
2019-05-20T06:06:37.246Z,94.60
2019-05-20T06:09:07.462Z,94.90
2019-05-20T06:11:36.626Z,94.60
2019-05-20T06:14:05.743Z,94.20
2019-05-20T06:16:36.921Z,94.30
2019-05-20T06:19:05.754Z,94.30
2019-05-20T06:21:34.940Z,94.30
2019-05-20T06:24:04.112Z,94.20
2019-05-20T06:26:33.309Z,94.00
2019-05-20T06:29:03.124Z,93.60
2019-05-20T06:31:32.613Z,93.80
2019-05-20T06:34:01.815Z,93.60
2019-05-20T06:36:31.766Z,93.60
2019-05-20T06:39:13.657Z,93.70
2019-05-20T06:41:43.177Z,93.80
2019-05-20T06:44:12.282Z,94.00
2019-05-20T06:46:41.378Z,94.30
2019-05-20T06:49:10.556Z,93.90
2019-05-20T06:51:39.754Z,93.50
2019-05-20T06:54:08.922Z,93.40
2019-05-20T06:56:38.118Z,93.30
2019-05-20T06:59:07.225Z,93.20
2019-05-20T07:01:36.407Z,93.40
2019-05-20T07:04:05.578Z,93.30
2019-05-20T07:06:45.864Z,93.80
2019-05-20T07:09:06.394Z,93.60
2019-05-20T07:11:35.583Z,93.40
2019-05-20T07:14:04.742Z,93.70
2019-05-20T07:16:33.934Z,93.50
2019-05-20T07:19:03.108Z,93.50
2019-05-20T07:21:32.281Z,93.70
2019-05-20T07:24:01.457Z,93.90
2019-05-20T07:26:30.658Z,93.40
2019-05-20T07:28:59.905Z,93.20
2019-05-20T07:31:29.102Z,93.70
2019-05-20T07:33:58.389Z,93.90
2019-05-20T07:36:27.637Z,93.70
2019-05-20T07:38:56.825Z,93.70
2019-05-20T07:41:25.982Z,93.50
2019-05-20T07:43:55.247Z,93.60
2019-05-20T07:46:24.401Z,93.30
2019-05-20T07:48:53.600Z,93.20
2019-05-20T07:51:22.756Z,93.40
2019-05-20T07:53:52.008Z,93.40
2019-05-20T07:56:24.018Z,93.50
2019-05-20T07:58:54.602Z,93.40
2019-05-20T08:01:23.785Z,93.50
2019-05-20T08:03:52.954Z,93.70
2019-05-20T08:06:22.158Z,94.00
2019-05-20T08:08:51.306Z,94.10
2019-05-20T08:11:20.625Z,94.00
2019-05-20T08:13:49.791Z,94.10
2019-05-20T08:16:19.149Z,94.00
2019-05-20T08:18:48.276Z,93.90
2019-05-20T08:21:17.470Z,93.90
2019-05-20T08:23:50.029Z,93.20
2019-05-20T08:26:17.702Z,93.00
2019-05-20T08:28:46.806Z,92.80
2019-05-20T08:31:15.896Z,92.10
2019-05-20T08:33:45.069Z,92.20
2019-05-20T08:36:14.164Z,91.90
2019-05-20T08:38:43.359Z,91.60
2019-05-20T08:41:12.538Z,91.50
2019-05-20T08:43:41.742Z,91.20
2019-05-20T08:46:10.912Z,90.70
2019-05-20T08:48:40.119Z,91.40
2019-05-20T08:51:09.306Z,91.20
2019-05-20T08:53:38.478Z,91.10
2019-05-20T08:56:07.701Z,91.10
2019-05-20T08:58:36.861Z,90.90
2019-05-20T09:01:07.027Z,90.40
2019-05-20T09:03:36.546Z,90.60
2019-05-20T09:06:05.745Z,90.30
2019-05-20T09:08:34.886Z,90.30
2019-05-20T09:11:04.064Z,90.20
2019-05-20T09:13:33.235Z,90.10
2019-05-20T09:16:02.446Z,89.20
2019-05-20T09:18:31.753Z,89.40
2019-05-20T09:21:00.978Z,89.30
2019-05-20T09:23:30.142Z,87.80
2019-05-20T09:25:59.314Z,88.00
2019-05-20T09:28:28.520Z,86.90
2019-05-20T09:30:57.674Z,87.70
2019-05-20T09:33:29.173Z,86.80
2019-05-20T09:35:58.330Z,83.70
2019-05-20T09:38:27.519Z,82.30
2019-05-20T09:40:56.708Z,81.60
2019-05-20T09:43:25.884Z,80.60
2019-05-20T09:46:06.235Z,79.60
2019-05-20T09:48:25.878Z,80.00
2019-05-20T09:50:55.054Z,79.30
2019-05-20T09:53:24.508Z,78.90
2019-05-20T09:55:53.687Z,77.50
2019-05-20T09:58:22.853Z,75.80
2019-05-20T10:00:52.043Z,75.60
2019-05-20T10:03:21.224Z,74.70
2019-05-20T10:05:50.396Z,73.30
2019-05-20T10:08:36.552Z,73.20
2019-05-20T10:10:50.578Z,72.00
2019-05-20T10:13:19.914Z,72.30
2019-05-20T10:15:49.126Z,71.30
2019-05-20T10:18:35.640Z,70.80
2019-05-20T10:20:49.243Z,67.30
2019-05-20T10:23:18.633Z,67.30
2019-05-20T10:25:47.827Z,65.30
2019-05-20T10:28:17.277Z,65.40
2019-05-20T10:30:46.439Z,65.00
2019-05-20T10:33:15.602Z,61.40
2019-05-20T10:35:44.782Z,60.30
2019-05-20T10:38:13.956Z,60.20
2019-05-20T10:40:43.406Z,60.00
2019-05-20T10:43:12.574Z,58.60
2019-05-20T10:45:41.758Z,56.70
2019-05-20T10:48:10.914Z,58.10
2019-05-20T10:50:40.100Z,58.70
2019-05-20T10:53:09.274Z,57.50
2019-05-20T10:55:38.470Z,56.60
2019-05-20T10:58:07.625Z,55.70
2019-05-20T11:00:36.779Z,55.10
2019-05-20T11:03:06.182Z,54.20
2019-05-20T11:05:35.342Z,54.00
2019-05-20T11:08:04.443Z,54.30
2019-05-20T11:10:33.620Z,53.10
2019-05-20T11:13:02.861Z,52.30
2019-05-20T11:15:32.095Z,52.20
2019-05-20T11:18:01.259Z,50.80
2019-05-20T11:20:30.397Z,50.90
2019-05-20T11:23:01.224Z,52.10
2019-05-20T11:25:30.365Z,51.70
2019-05-20T11:27:59.590Z,51.80
2019-05-20T11:30:28.770Z,50.50
2019-05-20T11:32:57.948Z,51.70
2019-05-20T11:35:27.107Z,51.40
2019-05-20T11:37:56.291Z,52.10
2019-05-20T11:40:25.466Z,52.80
2019-05-20T11:42:54.670Z,53.30
2019-05-20T11:45:23.846Z,52.40
2019-05-20T11:47:53.076Z,52.70
2019-05-20T11:50:22.238Z,52.30
2019-05-20T11:52:51.407Z,52.90
2019-05-20T11:55:20.590Z,52.70
2019-05-20T11:57:49.686Z,52.30
2019-05-20T12:00:18.947Z,52.60
2019-05-20T12:02:48.154Z,53.30
2019-05-20T12:05:17.586Z,53.80
2019-05-20T12:07:46.742Z,54.40
2019-05-20T12:10:16.736Z,53.90
2019-05-20T12:12:46.306Z,54.00
2019-05-20T12:15:15.724Z,53.80
2019-05-20T12:17:44.888Z,52.90
2019-05-20T12:20:14.077Z,51.80
2019-05-20T12:22:43.239Z,51.80
2019-05-20T12:25:12.429Z,52.40
2019-05-20T12:27:41.583Z,51.50
2019-05-20T12:30:10.859Z,51.40
2019-05-20T12:32:40.016Z,52.00
2019-05-20T12:35:09.245Z,52.60
2019-05-20T12:37:38.528Z,53.30
2019-05-20T12:40:08.534Z,52.70
2019-05-20T12:42:38.115Z,52.00
2019-05-20T12:45:07.546Z,51.30
2019-05-20T12:47:36.641Z,50.20
2019-05-20T12:50:05.817Z,49.80
2019-05-20T12:52:35.008Z,50.00
2019-05-20T12:55:08.541Z,50.50
2019-05-20T12:57:35.027Z,51.00
2019-05-20T13:00:04.584Z,51.20
2019-05-20T13:02:33.758Z,51.40
2019-05-20T13:05:02.942Z,51.00
2019-05-20T13:07:32.122Z,50.90
2019-05-20T13:10:03.176Z,50.40
2019-05-20T13:12:32.126Z,49.20
2019-05-20T13:15:01.295Z,46.80
2019-05-20T13:17:30.592Z,46.80
2019-05-20T13:20:00.223Z,46.90
2019-05-20T13:22:29.390Z,46.50
2019-05-20T13:24:58.563Z,45.10
2019-05-20T13:27:27.742Z,44.90
2019-05-20T13:29:56.847Z,45.30
2019-05-20T13:32:26.026Z,45.70
2019-05-20T13:34:55.200Z,45.20
2019-05-20T13:37:24.386Z,44.80
2019-05-20T13:39:53.564Z,44.80
2019-05-20T13:42:22.803Z,45.30
2019-05-20T13:44:51.970Z,44.40
2019-05-20T13:47:21.247Z,44.10
2019-05-20T13:49:50.471Z,42.30
2019-05-20T13:52:19.706Z,40.90
2019-05-20T13:54:48.926Z,42.40
2019-05-20T13:57:18.305Z,42.90
2019-05-20T13:59:47.429Z,42.00
2019-05-20T14:02:16.888Z,42.30
2019-05-20T14:04:46.076Z,42.30
2019-05-20T14:07:15.238Z,42.10
2019-05-20T14:09:44.502Z,40.50
2019-05-20T14:12:13.669Z,40.80
2019-05-20T14:14:42.770Z,40.80
2019-05-20T14:17:11.894Z,41.50
2019-05-20T14:19:40.993Z,41.50
2019-05-20T14:22:10.177Z,42.90
2019-05-20T14:24:39.398Z,41.90
2019-05-20T14:27:08.515Z,42.10
2019-05-20T14:29:38.005Z,45.50
2019-05-20T14:32:07.185Z,48.10
2019-05-20T14:34:36.359Z,50.30
2019-05-20T14:37:05.525Z,52.00
2019-05-20T14:39:34.711Z,51.30
2019-05-20T14:42:03.892Z,51.10
2019-05-20T14:44:33.074Z,50.30
2019-05-20T14:47:02.203Z,49.00
2019-05-20T14:49:31.378Z,48.50
2019-05-20T14:52:00.571Z,47.40
2019-05-20T14:54:29.755Z,46.80
2019-05-20T14:56:58.929Z,45.50
2019-05-20T14:59:28.104Z,43.70
2019-05-20T15:01:57.359Z,43.60
2019-05-20T15:04:26.635Z,44.40
2019-05-20T15:06:56.047Z,44.30
2019-05-20T15:09:25.221Z,45.10
2019-05-20T15:11:54.387Z,46.90
2019-05-20T15:14:23.587Z,47.80
2019-05-20T15:16:52.770Z,48.50
2019-05-20T15:19:22.501Z,49.30
2019-05-20T15:21:51.713Z,49.30
2019-05-20T15:24:20.957Z,49.00
2019-05-20T15:26:50.200Z,49.40
2019-05-20T15:29:27.879Z,50.00
2019-05-20T15:31:50.210Z,51.30
2019-05-20T15:34:19.393Z,51.70
2019-05-20T15:36:48.604Z,52.30
2019-05-20T15:39:17.786Z,53.30
2019-05-20T15:41:47.009Z,52.30
2019-05-20T15:44:16.182Z,54.40
2019-05-20T15:46:45.281Z,54.60
2019-05-20T15:49:14.455Z,54.70
2019-05-20T15:51:43.622Z,55.70
2019-05-20T15:54:12.805Z,54.80
2019-05-20T15:56:41.968Z,54.60
2019-05-20T15:59:11.146Z,55.90
2019-05-20T16:01:40.383Z,54.70
2019-05-20T16:04:09.586Z,56.20
2019-05-20T16:06:38.878Z,55.10
2019-05-20T16:09:08.042Z,55.60
2019-05-20T16:11:37.359Z,55.00
2019-05-20T16:14:06.471Z,53.90
2019-05-20T16:16:35.671Z,53.90
2019-05-20T16:19:05.098Z,55.60
2019-05-20T16:21:34.496Z,56.20
2019-05-20T16:24:03.714Z,55.70
2019-05-20T16:26:32.819Z,56.50
2019-05-20T16:29:01.983Z,57.00
2019-05-20T16:31:31.171Z,57.00
2019-05-20T16:34:00.357Z,56.10
2019-05-20T16:36:32.923Z,56.40
2019-05-20T16:39:02.115Z,56.80
2019-05-20T16:41:31.322Z,57.90
2019-05-20T16:44:00.519Z,57.70
2019-05-20T16:46:29.709Z,59.00
2019-05-20T16:48:59.294Z,59.30
2019-05-20T16:51:28.504Z,59.20
2019-05-20T16:53:57.718Z,58.90
2019-05-20T16:56:26.991Z,59.90
2019-05-20T16:58:56.203Z,60.00
2019-05-20T17:01:25.382Z,59.90
2019-05-20T17:03:54.562Z,59.80
2019-05-20T17:06:23.750Z,61.70
2019-05-20T17:08:52.942Z,60.90
2019-05-20T17:11:22.134Z,61.60
2019-05-20T17:13:51.327Z,62.40
2019-05-20T17:16:20.550Z,62.60
2019-05-20T17:18:49.757Z,63.20
2019-05-20T17:21:19.117Z,63.60
2019-05-20T17:23:48.490Z,63.80
2019-05-20T17:26:17.710Z,64.00
2019-05-20T17:28:46.922Z,63.30
2019-05-20T17:31:16.099Z,63.70
2019-05-20T17:33:45.315Z,64.00
2019-05-20T17:36:14.498Z,63.80
2019-05-20T17:38:43.669Z,63.90
2019-05-20T17:41:12.894Z,64.10
2019-05-20T17:43:42.071Z,64.70
2019-05-20T17:46:11.256Z,65.00
2019-05-20T17:48:40.426Z,65.20
2019-05-20T17:51:09.570Z,64.90
2019-05-20T17:53:38.768Z,64.70
2019-05-20T17:56:08.201Z,65.40
2019-05-20T17:58:37.711Z,65.30
2019-05-20T18:01:15.414Z,66.10
2019-05-20T18:03:37.822Z,66.40
2019-05-20T18:06:07.040Z,66.30
2019-05-20T18:08:42.316Z,67.60
2019-05-20T18:11:11.493Z,67.60
2019-05-20T18:13:40.654Z,68.70
2019-05-20T18:16:09.870Z,69.10
2019-05-20T18:18:39.175Z,68.80
2019-05-20T18:21:08.450Z,69.20
2019-05-20T18:23:37.640Z,69.20
2019-05-20T18:26:06.817Z,69.20
2019-05-20T18:28:36.066Z,69.60
2019-05-20T18:31:05.240Z,69.90
2019-05-20T18:33:34.435Z,70.10
2019-05-20T18:36:03.656Z,70.30
2019-05-20T18:38:32.774Z,69.60
2019-05-20T18:41:01.966Z,70.60
2019-05-20T18:43:31.150Z,71.30
2019-05-20T18:46:00.320Z,72.20
2019-05-20T18:48:29.554Z,72.90
2019-05-20T18:50:58.726Z,73.20
2019-05-20T18:53:27.916Z,74.00
2019-05-20T18:55:57.086Z,73.70
2019-05-20T18:58:26.266Z,74.00
2019-05-20T19:00:55.434Z,74.50
2019-05-20T19:03:24.920Z,74.20
2019-05-20T19:05:54.291Z,74.00
2019-05-20T19:08:25.635Z,74.00
2019-05-20T19:10:54.298Z,74.60
2019-05-20T19:13:23.510Z,74.40
2019-05-20T19:15:52.766Z,75.00
2019-05-20T19:18:21.901Z,74.80
2019-05-20T19:20:51.102Z,75.00
2019-05-20T19:23:20.246Z,75.50
2019-05-20T19:25:49.345Z,76.10
2019-05-20T19:28:18.690Z,76.40
2019-05-20T19:30:47.867Z,76.90
2019-05-20T19:33:17.171Z,77.10
2019-05-20T19:35:46.360Z,77.80
2019-05-20T19:38:15.530Z,77.70
2019-05-20T19:40:44.859Z,78.10
2019-05-20T19:43:15.342Z,78.50
2019-05-20T19:45:44.506Z,79.00
2019-05-20T19:48:13.686Z,78.60
2019-05-20T19:50:48.153Z,79.10
2019-05-20T19:53:17.370Z,79.00
2019-05-20T19:55:46.578Z,79.30
2019-05-20T19:58:15.809Z,79.60
2019-05-20T20:00:49.071Z,79.80
2019-05-20T20:03:19.769Z,80.10
2019-05-20T20:05:49.022Z,80.10
2019-05-20T20:08:18.310Z,80.10
2019-05-20T20:10:47.496Z,80.00
2019-05-20T20:13:19.704Z,80.20
2019-05-20T20:15:47.890Z,80.20
2019-05-20T20:18:17.187Z,80.10
2019-05-20T20:20:48.973Z,80.20
2019-05-20T20:23:18.292Z,81.30
2019-05-20T20:25:49.063Z,80.50
2019-05-20T20:28:21.398Z,80.30
2019-05-20T20:30:53.402Z,80.80
2019-05-20T20:33:22.670Z,81.00
2019-05-20T20:35:51.938Z,81.20
2019-05-20T20:38:21.114Z,81.00
2019-05-20T20:40:50.298Z,80.50
2019-05-20T20:43:19.902Z,81.00
2019-05-20T20:45:49.110Z,80.80
2019-05-20T20:48:18.406Z,80.70
2019-05-20T20:50:49.079Z,80.90
2019-05-20T20:53:18.314Z,81.50
2019-05-20T20:55:47.488Z,82.20
2019-05-20T20:58:16.681Z,82.50
2019-05-20T21:00:45.882Z,83.90
2019-05-20T21:03:15.054Z,85.40
2019-05-20T21:05:44.216Z,85.80
2019-05-20T21:08:13.432Z,85.80
2019-05-20T21:10:42.589Z,86.10
2019-05-20T21:13:11.694Z,86.50
2019-05-20T21:15:40.813Z,86.70
2019-05-20T21:18:09.982Z,87.10
2019-05-20T21:20:39.154Z,87.30
2019-05-20T21:23:08.378Z,87.50
2019-05-20T21:25:37.565Z,87.70
2019-05-20T21:28:06.721Z,88.00
2019-05-20T21:30:35.826Z,87.90
2019-05-20T21:33:09.126Z,87.30
2019-05-20T21:35:35.826Z,87.30
2019-05-20T21:38:05.069Z,87.10
2019-05-20T21:40:34.181Z,86.30
2019-05-20T21:43:03.304Z,86.10
2019-05-20T21:45:33.858Z,86.20
2019-05-20T21:48:03.083Z,86.50
2019-05-20T21:50:33.178Z,86.30
2019-05-20T21:53:02.363Z,86.10
2019-05-20T21:55:31.630Z,86.20
2019-05-20T21:58:00.826Z,86.50
2019-05-20T22:01:04.234Z,86.60
2019-05-20T22:03:33.405Z,86.60
2019-05-20T22:06:02.602Z,87.00
2019-05-20T22:08:31.809Z,87.20
2019-05-20T22:11:00.910Z,87.50
2019-05-20T22:13:29.997Z,88.30
2019-05-20T22:15:59.136Z,88.30
2019-05-20T22:18:28.318Z,88.40
2019-05-20T22:20:57.435Z,89.30
2019-05-20T22:23:54.721Z,88.80
2019-05-20T22:26:23.896Z,89.80
2019-05-20T22:28:53.053Z,89.20
2019-05-20T22:31:22.167Z,89.10
2019-05-20T22:33:51.257Z,89.80
2019-05-20T22:36:20.664Z,89.20
2019-05-20T22:38:49.833Z,89.30
2019-05-20T22:41:18.923Z,89.60
2019-05-20T22:43:48.225Z,89.90
2019-05-20T22:46:17.518Z,89.80
2019-05-20T22:48:46.652Z,89.80
2019-05-20T22:51:15.809Z,89.60
2019-05-20T22:53:44.914Z,89.80
2019-05-20T22:56:14.096Z,90.20
2019-05-20T22:58:43.263Z,90.40
2019-05-20T23:01:12.496Z,90.70
2019-05-20T23:03:55.371Z,90.90
2019-05-20T23:06:12.499Z,91.00
2019-05-20T23:08:41.722Z,91.20
2019-05-20T23:11:10.859Z,91.50
2019-05-20T23:13:40.041Z,92.00
2019-05-20T23:16:09.146Z,92.40
2019-05-20T23:18:38.310Z,92.50
2019-05-20T23:21:07.557Z,92.50
2019-05-20T23:23:36.733Z,92.50
2019-05-20T23:26:05.906Z,92.80
2019-05-20T23:28:35.006Z,93.00
2019-05-20T23:31:04.294Z,93.10
2019-05-20T23:33:33.498Z,93.20
2019-05-20T23:36:02.670Z,93.20
2019-05-20T23:38:31.825Z,93.10
2019-05-20T23:41:00.937Z,93.00
2019-05-20T23:43:30.197Z,93.10
2019-05-20T23:45:59.310Z,93.10
2019-05-20T23:48:28.407Z,93.10
2019-05-20T23:50:57.570Z,93.10
2019-05-20T23:53:26.975Z,93.20
2019-05-20T23:55:56.147Z,93.30
2019-05-20T23:58:25.315Z,93.30
